sensor_id;sensor_type;location;lat;lon;timestamp;P1;durP1;ratioP1;P2;durP2;ratioP2
15126;SDS011;7664;52.008;4.748;2022-07-18T00:02:05;5.97;;;3.70;;
15126;SDS011;7664;52.008;4.748;2022-07-18T00:04:33;6.60;;;4.32;;
15126;SDS011;7664;52.008;4.748;2022-07-18T00:07:01;8.00;;;3.78;;
15126;SDS011;7664;52.008;4.748;2022-07-18T00:09:30;6.57;;;3.80;;
15126;SDS011;7664;52.008;4.748;2022-07-18T00:12:01;6.35;;;3.80;;
15126;SDS011;7664;52.008;4.748;2022-07-18T00:14:29;6.97;;;3.60;;
15126;SDS011;7664;52.008;4.748;2022-07-18T00:16:57;5.32;;;3.15;;
15126;SDS011;7664;52.008;4.748;2022-07-18T00:19:26;6.63;;;4.00;;
15126;SDS011;7664;52.008;4.748;2022-07-18T00:21:54;8.20;;;4.32;;
15126;SDS011;7664;52.008;4.748;2022-07-18T00:24:22;6.28;;;3.35;;
15126;SDS011;7664;52.008;4.748;2022-07-18T00:26:52;5.85;;;3.47;;
15126;SDS011;7664;52.008;4.748;2022-07-18T00:29:20;6.45;;;3.75;;
15126;SDS011;7664;52.008;4.748;2022-07-18T00:31:48;6.57;;;3.67;;
15126;SDS011;7664;52.008;4.748;2022-07-18T00:34:16;6.25;;;3.92;;
15126;SDS011;7664;52.008;4.748;2022-07-18T00:36:44;5.63;;;3.05;;
15126;SDS011;7664;52.008;4.748;2022-07-18T00:39:12;6.22;;;3.78;;
15126;SDS011;7664;52.008;4.748;2022-07-18T00:41:44;7.72;;;3.08;;
15126;SDS011;7664;52.008;4.748;2022-07-18T00:44:17;4.65;;;2.67;;
15126;SDS011;7664;52.008;4.748;2022-07-18T00:46:45;7.20;;;3.17;;
15126;SDS011;7664;52.008;4.748;2022-07-18T00:49:15;5.70;;;3.60;;
15126;SDS011;7664;52.008;4.748;2022-07-18T00:51:43;5.22;;;2.92;;
15126;SDS011;7664;52.008;4.748;2022-07-18T00:54:12;6.35;;;2.65;;
15126;SDS011;7664;52.008;4.748;2022-07-18T00:56:40;5.55;;;2.90;;
15126;SDS011;7664;52.008;4.748;2022-07-18T00:59:09;5.07;;;3.25;;
15126;SDS011;7664;52.008;4.748;2022-07-18T01:01:39;5.38;;;2.95;;
15126;SDS011;7664;52.008;4.748;2022-07-18T01:04:10;5.68;;;3.78;;
15126;SDS011;7664;52.008;4.748;2022-07-18T01:06:40;4.65;;;3.10;;
15126;SDS011;7664;52.008;4.748;2022-07-18T01:09:08;5.03;;;2.55;;
15126;SDS011;7664;52.008;4.748;2022-07-18T01:11:36;5.43;;;3.10;;
15126;SDS011;7664;52.008;4.748;2022-07-18T01:14:04;4.63;;;2.95;;
15126;SDS011;7664;52.008;4.748;2022-07-18T01:16:33;4.57;;;2.83;;
15126;SDS011;7664;52.008;4.748;2022-07-18T01:19:03;6.40;;;3.60;;
15126;SDS011;7664;52.008;4.748;2022-07-18T01:21:32;4.95;;;3.13;;
15126;SDS011;7664;52.008;4.748;2022-07-18T01:24:00;6.10;;;3.35;;
15126;SDS011;7664;52.008;4.748;2022-07-18T01:26:29;6.68;;;3.00;;
15126;SDS011;7664;52.008;4.748;2022-07-18T01:28:58;4.90;;;3.22;;
15126;SDS011;7664;52.008;4.748;2022-07-18T01:31:26;3.92;;;2.45;;
15126;SDS011;7664;52.008;4.748;2022-07-18T01:33:56;3.97;;;2.47;;
15126;SDS011;7664;52.008;4.748;2022-07-18T01:36:24;4.75;;;2.67;;
15126;SDS011;7664;52.008;4.748;2022-07-18T01:38:53;4.95;;;2.75;;
15126;SDS011;7664;52.008;4.748;2022-07-18T01:41:21;5.25;;;2.80;;
15126;SDS011;7664;52.008;4.748;2022-07-18T01:43:49;6.60;;;2.63;;
15126;SDS011;7664;52.008;4.748;2022-07-18T01:46:17;6.55;;;2.97;;
15126;SDS011;7664;52.008;4.748;2022-07-18T01:48:45;6.05;;;3.00;;
15126;SDS011;7664;52.008;4.748;2022-07-18T01:51:13;4.78;;;2.85;;
15126;SDS011;7664;52.008;4.748;2022-07-18T01:53:41;5.53;;;3.20;;
15126;SDS011;7664;52.008;4.748;2022-07-18T01:56:12;5.00;;;3.25;;
15126;SDS011;7664;52.008;4.748;2022-07-18T01:58:40;6.03;;;3.10;;
15126;SDS011;7664;52.008;4.748;2022-07-18T02:01:08;5.45;;;3.22;;
15126;SDS011;7664;52.008;4.748;2022-07-18T02:03:36;5.82;;;3.45;;
15126;SDS011;7664;52.008;4.748;2022-07-18T02:06:04;4.72;;;2.88;;
15126;SDS011;7664;52.008;4.748;2022-07-18T02:08:32;6.97;;;3.40;;
15126;SDS011;7664;52.008;4.748;2022-07-18T02:11:00;5.38;;;3.25;;
15126;SDS011;7664;52.008;4.748;2022-07-18T02:13:29;6.22;;;3.42;;
15126;SDS011;7664;52.008;4.748;2022-07-18T02:15:57;5.40;;;3.03;;
15126;SDS011;7664;52.008;4.748;2022-07-18T02:18:25;7.80;;;2.88;;
15126;SDS011;7664;52.008;4.748;2022-07-18T02:20:53;6.35;;;2.90;;
15126;SDS011;7664;52.008;4.748;2022-07-18T02:23:21;6.65;;;3.22;;
15126;SDS011;7664;52.008;4.748;2022-07-18T02:25:49;6.13;;;3.33;;
15126;SDS011;7664;52.008;4.748;2022-07-18T02:28:16;7.30;;;2.83;;
15126;SDS011;7664;52.008;4.748;2022-07-18T02:30:46;6.13;;;2.95;;
15126;SDS011;7664;52.008;4.748;2022-07-18T02:33:14;4.05;;;2.47;;
15126;SDS011;7664;52.008;4.748;2022-07-18T02:35:43;5.57;;;2.65;;
15126;SDS011;7664;52.008;4.748;2022-07-18T02:38:11;5.32;;;3.13;;
15126;SDS011;7664;52.008;4.748;2022-07-18T02:40:39;6.47;;;3.05;;
15126;SDS011;7664;52.008;4.748;2022-07-18T02:43:07;5.20;;;3.58;;
15126;SDS011;7664;52.008;4.748;2022-07-18T02:45:35;4.97;;;2.70;;
15126;SDS011;7664;52.008;4.748;2022-07-18T02:48:09;5.55;;;3.33;;
15126;SDS011;7664;52.008;4.748;2022-07-18T02:50:37;6.30;;;3.65;;
15126;SDS011;7664;52.008;4.748;2022-07-18T02:53:05;4.43;;;3.08;;
15126;SDS011;7664;52.008;4.748;2022-07-18T02:55:33;5.25;;;2.95;;
15126;SDS011;7664;52.008;4.748;2022-07-18T02:58:01;5.22;;;3.17;;
15126;SDS011;7664;52.008;4.748;2022-07-18T03:00:29;5.60;;;3.00;;
15126;SDS011;7664;52.008;4.748;2022-07-18T03:02:57;4.75;;;2.65;;
15126;SDS011;7664;52.008;4.748;2022-07-18T03:05:26;5.47;;;2.78;;
15126;SDS011;7664;52.008;4.748;2022-07-18T03:07:55;23.58;;;13.57;;
15126;SDS011;7664;52.008;4.748;2022-07-18T03:10:23;14.02;;;8.82;;
15126;SDS011;7664;52.008;4.748;2022-07-18T03:12:51;7.47;;;4.38;;
15126;SDS011;7664;52.008;4.748;2022-07-18T03:15:18;6.63;;;4.35;;
15126;SDS011;7664;52.008;4.748;2022-07-18T03:17:46;6.95;;;4.55;;
15126;SDS011;7664;52.008;4.748;2022-07-18T03:20:14;11.70;;;6.25;;
15126;SDS011;7664;52.008;4.748;2022-07-18T03:22:44;11.88;;;7.00;;
15126;SDS011;7664;52.008;4.748;2022-07-18T03:25:11;9.05;;;5.85;;
15126;SDS011;7664;52.008;4.748;2022-07-18T03:27:41;19.52;;;11.43;;
15126;SDS011;7664;52.008;4.748;2022-07-18T03:30:10;20.45;;;11.75;;
15126;SDS011;7664;52.008;4.748;2022-07-18T03:32:39;22.83;;;14.93;;
15126;SDS011;7664;52.008;4.748;2022-07-18T03:35:07;22.67;;;13.60;;
15126;SDS011;7664;52.008;4.748;2022-07-18T03:37:35;16.23;;;7.75;;
15126;SDS011;7664;52.008;4.748;2022-07-18T03:40:05;8.10;;;4.93;;
15126;SDS011;7664;52.008;4.748;2022-07-18T03:42:35;7.35;;;4.75;;
15126;SDS011;7664;52.008;4.748;2022-07-18T03:45:04;6.32;;;4.35;;
15126;SDS011;7664;52.008;4.748;2022-07-18T03:47:35;8.25;;;4.70;;
15126;SDS011;7664;52.008;4.748;2022-07-18T03:50:03;7.55;;;3.58;;
15126;SDS011;7664;52.008;4.748;2022-07-18T03:52:31;5.45;;;3.67;;
15126;SDS011;7664;52.008;4.748;2022-07-18T03:54:59;7.57;;;3.90;;
15126;SDS011;7664;52.008;4.748;2022-07-18T03:57:30;8.07;;;4.18;;
15126;SDS011;7664;52.008;4.748;2022-07-18T03:59:58;4.88;;;3.60;;
15126;SDS011;7664;52.008;4.748;2022-07-18T04:02:26;6.95;;;3.78;;
15126;SDS011;7664;52.008;4.748;2022-07-18T04:04:54;6.05;;;3.58;;
15126;SDS011;7664;52.008;4.748;2022-07-18T04:07:22;6.20;;;3.72;;
15126;SDS011;7664;52.008;4.748;2022-07-18T04:09:50;6.35;;;3.50;;
15126;SDS011;7664;52.008;4.748;2022-07-18T04:12:19;8.63;;;3.90;;
15126;SDS011;7664;52.008;4.748;2022-07-18T04:14:49;7.57;;;3.70;;
15126;SDS011;7664;52.008;4.748;2022-07-18T04:17:16;8.60;;;4.13;;
15126;SDS011;7664;52.008;4.748;2022-07-18T04:19:44;8.88;;;4.30;;
15126;SDS011;7664;52.008;4.748;2022-07-18T04:22:12;4.93;;;3.10;;
15126;SDS011;7664;52.008;4.748;2022-07-18T04:24:40;6.25;;;3.90;;
15126;SDS011;7664;52.008;4.748;2022-07-18T04:27:08;6.68;;;3.80;;
15126;SDS011;7664;52.008;4.748;2022-07-18T04:29:36;6.10;;;4.15;;
15126;SDS011;7664;52.008;4.748;2022-07-18T04:32:06;9.70;;;4.45;;
15126;SDS011;7664;52.008;4.748;2022-07-18T04:34:34;5.07;;;3.80;;
15126;SDS011;7664;52.008;4.748;2022-07-18T04:37:02;8.43;;;4.00;;
15126;SDS011;7664;52.008;4.748;2022-07-18T04:39:30;7.63;;;4.35;;
15126;SDS011;7664;52.008;4.748;2022-07-18T04:41:58;8.68;;;4.72;;
15126;SDS011;7664;52.008;4.748;2022-07-18T04:44:26;7.97;;;3.42;;
15126;SDS011;7664;52.008;4.748;2022-07-18T04:46:53;7.72;;;3.90;;
15126;SDS011;7664;52.008;4.748;2022-07-18T04:49:23;6.40;;;4.15;;
15126;SDS011;7664;52.008;4.748;2022-07-18T04:51:51;6.82;;;4.35;;
15126;SDS011;7664;52.008;4.748;2022-07-18T04:54:19;6.22;;;3.92;;
15126;SDS011;7664;52.008;4.748;2022-07-18T04:56:47;5.78;;;4.07;;
15126;SDS011;7664;52.008;4.748;2022-07-18T04:59:15;9.13;;;4.28;;
15126;SDS011;7664;52.008;4.748;2022-07-18T05:01:43;8.07;;;4.35;;
15126;SDS011;7664;52.008;4.748;2022-07-18T05:04:11;6.53;;;4.25;;
15126;SDS011;7664;52.008;4.748;2022-07-18T05:06:41;7.10;;;3.63;;
15126;SDS011;7664;52.008;4.748;2022-07-18T05:09:08;7.05;;;4.00;;
15126;SDS011;7664;52.008;4.748;2022-07-18T05:11:36;6.75;;;4.07;;
15126;SDS011;7664;52.008;4.748;2022-07-18T05:14:05;8.18;;;4.10;;
15126;SDS011;7664;52.008;4.748;2022-07-18T05:16:33;8.93;;;4.45;;
15126;SDS011;7664;52.008;4.748;2022-07-18T05:19:01;8.68;;;4.65;;
15126;SDS011;7664;52.008;4.748;2022-07-18T05:21:30;9.38;;;4.32;;
15126;SDS011;7664;52.008;4.748;2022-07-18T05:23:59;8.15;;;4.47;;
15126;SDS011;7664;52.008;4.748;2022-07-18T05:26:26;9.35;;;4.10;;
15126;SDS011;7664;52.008;4.748;2022-07-18T05:29:01;7.30;;;4.05;;
15126;SDS011;7664;52.008;4.748;2022-07-18T05:31:29;7.65;;;4.45;;
15126;SDS011;7664;52.008;4.748;2022-07-18T05:33:57;6.93;;;4.32;;
15126;SDS011;7664;52.008;4.748;2022-07-18T05:36:25;9.38;;;4.53;;
15126;SDS011;7664;52.008;4.748;2022-07-18T05:38:53;6.65;;;4.40;;
15126;SDS011;7664;52.008;4.748;2022-07-18T05:41:23;7.10;;;4.50;;
15126;SDS011;7664;52.008;4.748;2022-07-18T05:43:51;6.40;;;4.10;;
15126;SDS011;7664;52.008;4.748;2022-07-18T05:46:19;10.13;;;4.22;;
15126;SDS011;7664;52.008;4.748;2022-07-18T05:48:46;6.50;;;4.57;;
15126;SDS011;7664;52.008;4.748;2022-07-18T05:51:15;7.15;;;4.03;;
15126;SDS011;7664;52.008;4.748;2022-07-18T05:53:42;8.30;;;4.18;;
15126;SDS011;7664;52.008;4.748;2022-07-18T05:56:10;7.18;;;4.70;;
15126;SDS011;7664;52.008;4.748;2022-07-18T05:58:40;5.85;;;3.78;;
15126;SDS011;7664;52.008;4.748;2022-07-18T06:01:12;7.90;;;4.53;;
15126;SDS011;7664;52.008;4.748;2022-07-18T06:03:43;6.70;;;4.32;;
15126;SDS011;7664;52.008;4.748;2022-07-18T06:06:11;8.32;;;4.70;;
15126;SDS011;7664;52.008;4.748;2022-07-18T06:08:39;7.32;;;3.80;;
15126;SDS011;7664;52.008;4.748;2022-07-18T06:11:07;6.30;;;3.78;;
15126;SDS011;7664;52.008;4.748;2022-07-18T06:13:35;7.65;;;4.97;;
15126;SDS011;7664;52.008;4.748;2022-07-18T06:16:07;7.55;;;4.50;;
15126;SDS011;7664;52.008;4.748;2022-07-18T06:18:36;7.93;;;4.63;;
15126;SDS011;7664;52.008;4.748;2022-07-18T06:21:04;6.40;;;4.13;;
15126;SDS011;7664;52.008;4.748;2022-07-18T06:23:32;6.80;;;3.60;;
15126;SDS011;7664;52.008;4.748;2022-07-18T06:26:02;7.85;;;4.07;;
15126;SDS011;7664;52.008;4.748;2022-07-18T06:28:30;3.97;;;3.22;;
15126;SDS011;7664;52.008;4.748;2022-07-18T06:30:58;8.93;;;3.75;;
15126;SDS011;7664;52.008;4.748;2022-07-18T06:33:29;6.70;;;3.20;;
15126;SDS011;7664;52.008;4.748;2022-07-18T06:35:57;9.52;;;3.45;;
15126;SDS011;7664;52.008;4.748;2022-07-18T06:38:25;4.75;;;2.70;;
15126;SDS011;7664;52.008;4.748;2022-07-18T06:40:53;4.50;;;2.75;;
15126;SDS011;7664;52.008;4.748;2022-07-18T06:43:22;4.55;;;2.90;;
15126;SDS011;7664;52.008;4.748;2022-07-18T06:45:50;7.40;;;2.38;;
15126;SDS011;7664;52.008;4.748;2022-07-18T06:48:18;5.38;;;2.40;;
15126;SDS011;7664;52.008;4.748;2022-07-18T06:50:47;6.13;;;2.33;;
15126;SDS011;7664;52.008;4.748;2022-07-18T06:53:15;4.65;;;2.60;;
15126;SDS011;7664;52.008;4.748;2022-07-18T06:55:43;2.63;;;1.98;;
15126;SDS011;7664;52.008;4.748;2022-07-18T06:58:11;3.38;;;1.90;;
15126;SDS011;7664;52.008;4.748;2022-07-18T07:00:40;3.80;;;2.00;;
15126;SDS011;7664;52.008;4.748;2022-07-18T07:03:08;2.53;;;2.05;;
15126;SDS011;7664;52.008;4.748;2022-07-18T07:05:36;3.85;;;2.33;;
15126;SDS011;7664;52.008;4.748;2022-07-18T07:08:05;3.58;;;2.63;;
15126;SDS011;7664;52.008;4.748;2022-07-18T07:10:33;4.32;;;2.28;;
15126;SDS011;7664;52.008;4.748;2022-07-18T07:13:01;5.10;;;2.28;;
15126;SDS011;7664;52.008;4.748;2022-07-18T07:15:29;5.07;;;2.67;;
15126;SDS011;7664;52.008;4.748;2022-07-18T07:17:58;2.95;;;1.88;;
15126;SDS011;7664;52.008;4.748;2022-07-18T07:20:26;4.05;;;2.08;;
15126;SDS011;7664;52.008;4.748;2022-07-18T07:22:54;4.80;;;2.95;;
15126;SDS011;7664;52.008;4.748;2022-07-18T07:25:25;3.33;;;1.70;;
15126;SDS011;7664;52.008;4.748;2022-07-18T07:27:53;6.10;;;2.28;;
15126;SDS011;7664;52.008;4.748;2022-07-18T07:30:22;2.55;;;1.60;;
15126;SDS011;7664;52.008;4.748;2022-07-18T07:32:50;5.05;;;2.03;;
15126;SDS011;7664;52.008;4.748;2022-07-18T07:35:19;2.67;;;2.00;;
15126;SDS011;7664;52.008;4.748;2022-07-18T07:37:48;3.95;;;2.20;;
15126;SDS011;7664;52.008;4.748;2022-07-18T07:40:19;3.30;;;2.05;;
15126;SDS011;7664;52.008;4.748;2022-07-18T07:42:50;5.93;;;2.40;;
15126;SDS011;7664;52.008;4.748;2022-07-18T07:45:18;4.32;;;2.20;;
15126;SDS011;7664;52.008;4.748;2022-07-18T07:47:46;5.72;;;1.75;;
15126;SDS011;7664;52.008;4.748;2022-07-18T07:50:14;5.72;;;2.53;;
15126;SDS011;7664;52.008;4.748;2022-07-18T07:52:42;4.22;;;2.20;;
15126;SDS011;7664;52.008;4.748;2022-07-18T07:55:10;5.00;;;1.90;;
15126;SDS011;7664;52.008;4.748;2022-07-18T07:57:38;5.90;;;2.10;;
15126;SDS011;7664;52.008;4.748;2022-07-18T08:00:08;5.05;;;2.00;;
15126;SDS011;7664;52.008;4.748;2022-07-18T08:02:36;5.78;;;2.10;;
15126;SDS011;7664;52.008;4.748;2022-07-18T08:05:05;3.88;;;2.03;;
15126;SDS011;7664;52.008;4.748;2022-07-18T08:07:33;3.33;;;2.35;;
15126;SDS011;7664;52.008;4.748;2022-07-18T08:10:01;2.97;;;2.00;;
15126;SDS011;7664;52.008;4.748;2022-07-18T08:12:28;3.08;;;1.83;;
15126;SDS011;7664;52.008;4.748;2022-07-18T08:14:56;4.32;;;1.92;;
15126;SDS011;7664;52.008;4.748;2022-07-18T08:17:26;5.05;;;1.83;;
15126;SDS011;7664;52.008;4.748;2022-07-18T08:19:53;5.03;;;1.90;;
15126;SDS011;7664;52.008;4.748;2022-07-18T08:22:21;3.83;;;1.52;;
15126;SDS011;7664;52.008;4.748;2022-07-18T08:24:49;4.57;;;2.13;;
15126;SDS011;7664;52.008;4.748;2022-07-18T08:27:17;3.25;;;1.52;;
15126;SDS011;7664;52.008;4.748;2022-07-18T08:29:45;4.18;;;2.03;;
15126;SDS011;7664;52.008;4.748;2022-07-18T08:32:33;5.40;;;2.65;;
15126;SDS011;7664;52.008;4.748;2022-07-18T08:35:01;3.55;;;1.88;;
15126;SDS011;7664;52.008;4.748;2022-07-18T08:37:29;4.82;;;2.50;;
15126;SDS011;7664;52.008;4.748;2022-07-18T08:39:57;3.10;;;1.50;;
15126;SDS011;7664;52.008;4.748;2022-07-18T08:42:26;4.18;;;1.80;;
15126;SDS011;7664;52.008;4.748;2022-07-18T08:44:55;3.88;;;1.70;;
15126;SDS011;7664;52.008;4.748;2022-07-18T08:47:24;3.15;;;1.80;;
15126;SDS011;7664;52.008;4.748;2022-07-18T08:49:57;4.30;;;2.00;;
15126;SDS011;7664;52.008;4.748;2022-07-18T08:52:26;2.50;;;1.55;;
15126;SDS011;7664;52.008;4.748;2022-07-18T08:55:14;6.80;;;2.17;;
15126;SDS011;7664;52.008;4.748;2022-07-18T08:57:51;3.17;;;1.83;;
15126;SDS011;7664;52.008;4.748;2022-07-18T09:00:20;3.47;;;1.95;;
15126;SDS011;7664;52.008;4.748;2022-07-18T09:02:55;2.78;;;1.83;;
15126;SDS011;7664;52.008;4.748;2022-07-18T09:05:25;3.67;;;1.67;;
15126;SDS011;7664;52.008;4.748;2022-07-18T09:08:07;4.68;;;1.90;;
15126;SDS011;7664;52.008;4.748;2022-07-18T09:10:41;7.28;;;1.88;;
15126;SDS011;7664;52.008;4.748;2022-07-18T09:13:15;6.53;;;2.13;;
15126;SDS011;7664;52.008;4.748;2022-07-18T09:15:57;3.67;;;1.80;;
15126;SDS011;7664;52.008;4.748;2022-07-18T09:18:27;7.00;;;1.85;;
15126;SDS011;7664;52.008;4.748;2022-07-18T09:21:06;3.28;;;1.92;;
15126;SDS011;7664;52.008;4.748;2022-07-18T09:23:36;4.78;;;2.47;;
15126;SDS011;7664;52.008;4.748;2022-07-18T09:26:06;4.22;;;2.25;;
15126;SDS011;7664;52.008;4.748;2022-07-18T09:28:47;4.47;;;2.13;;
15126;SDS011;7664;52.008;4.748;2022-07-18T09:31:37;7.30;;;2.33;;
15126;SDS011;7664;52.008;4.748;2022-07-18T09:34:05;7.18;;;2.47;;
15126;SDS011;7664;52.008;4.748;2022-07-18T09:36:34;4.38;;;2.25;;
15126;SDS011;7664;52.008;4.748;2022-07-18T09:39:21;3.88;;;2.20;;
15126;SDS011;7664;52.008;4.748;2022-07-18T09:41:49;5.63;;;2.67;;
15126;SDS011;7664;52.008;4.748;2022-07-18T09:44:17;4.68;;;1.90;;
15126;SDS011;7664;52.008;4.748;2022-07-18T09:49:33;4.53;;;2.08;;
15126;SDS011;7664;52.008;4.748;2022-07-18T09:52:04;5.00;;;2.00;;
15126;SDS011;7664;52.008;4.748;2022-07-18T09:54:38;5.28;;;2.67;;
15126;SDS011;7664;52.008;4.748;2022-07-18T09:57:07;4.25;;;2.00;;
15126;SDS011;7664;52.008;4.748;2022-07-18T09:59:35;4.85;;;2.08;;
15126;SDS011;7664;52.008;4.748;2022-07-18T10:02:04;6.57;;;2.25;;
15126;SDS011;7664;52.008;4.748;2022-07-18T10:04:32;2.72;;;1.83;;
15126;SDS011;7664;52.008;4.748;2022-07-18T10:07:00;5.38;;;2.40;;
15126;SDS011;7664;52.008;4.748;2022-07-18T10:09:30;2.85;;;1.77;;
15126;SDS011;7664;52.008;4.748;2022-07-18T10:12:00;3.88;;;1.88;;
15126;SDS011;7664;52.008;4.748;2022-07-18T10:14:28;4.82;;;2.47;;
15126;SDS011;7664;52.008;4.748;2022-07-18T10:16:57;3.95;;;2.20;;
15126;SDS011;7664;52.008;4.748;2022-07-18T10:19:26;3.35;;;2.20;;
15126;SDS011;7664;52.008;4.748;2022-07-18T10:21:54;5.32;;;2.38;;
15126;SDS011;7664;52.008;4.748;2022-07-18T10:24:24;4.10;;;2.88;;
15126;SDS011;7664;52.008;4.748;2022-07-18T10:27:15;8.00;;;2.72;;
15126;SDS011;7664;52.008;4.748;2022-07-18T10:32:34;4.00;;;1.80;;
15126;SDS011;7664;52.008;4.748;2022-07-18T10:35:02;2.08;;;1.48;;
15126;SDS011;7664;52.008;4.748;2022-07-18T10:37:31;2.25;;;1.75;;
15126;SDS011;7664;52.008;4.748;2022-07-18T10:45:58;5.03;;;2.28;;
15126;SDS011;7664;52.008;4.748;2022-07-18T10:48:47;3.03;;;1.73;;
15126;SDS011;7664;52.008;4.748;2022-07-18T10:51:19;4.10;;;1.75;;
15126;SDS011;7664;52.008;4.748;2022-07-18T10:53:55;4.30;;;1.60;;
15126;SDS011;7664;52.008;4.748;2022-07-18T10:59:25;4.35;;;2.58;;
15126;SDS011;7664;52.008;4.748;2022-07-18T11:01:55;4.50;;;3.00;;
15126;SDS011;7664;52.008;4.748;2022-07-18T11:04:25;2.72;;;1.90;;
15126;SDS011;7664;52.008;4.748;2022-07-18T11:07:02;7.97;;;1.92;;
15126;SDS011;7664;52.008;4.748;2022-07-18T11:09:32;3.75;;;1.80;;
15126;SDS011;7664;52.008;4.748;2022-07-18T11:12:17;2.97;;;1.75;;
15126;SDS011;7664;52.008;4.748;2022-07-18T11:15:08;2.65;;;1.90;;
15126;SDS011;7664;52.008;4.748;2022-07-18T11:17:55;1.85;;;1.52;;
15126;SDS011;7664;52.008;4.748;2022-07-18T11:20:29;3.40;;;1.55;;
15126;SDS011;7664;52.008;4.748;2022-07-18T11:23:04;3.85;;;2.08;;
15126;SDS011;7664;52.008;4.748;2022-07-18T11:25:40;5.78;;;2.00;;
15126;SDS011;7664;52.008;4.748;2022-07-18T11:28:26;2.97;;;1.92;;
15126;SDS011;7664;52.008;4.748;2022-07-18T11:31:01;5.75;;;2.13;;
15126;SDS011;7664;52.008;4.748;2022-07-18T11:33:33;3.22;;;2.10;;
15126;SDS011;7664;52.008;4.748;2022-07-18T11:36:03;3.90;;;1.85;;
15126;SDS011;7664;52.008;4.748;2022-07-18T11:38:33;3.00;;;2.10;;
15126;SDS011;7664;52.008;4.748;2022-07-18T11:41:03;4.40;;;2.10;;
15126;SDS011;7664;52.008;4.748;2022-07-18T11:43:31;6.18;;;2.35;;
15126;SDS011;7664;52.008;4.748;2022-07-18T11:46:00;5.00;;;1.98;;
15126;SDS011;7664;52.008;4.748;2022-07-18T11:48:30;4.97;;;2.45;;
15126;SDS011;7664;52.008;4.748;2022-07-18T11:51:01;2.65;;;1.85;;
15126;SDS011;7664;52.008;4.748;2022-07-18T11:53:29;4.80;;;2.05;;
15126;SDS011;7664;52.008;4.748;2022-07-18T11:55:57;7.00;;;2.88;;
15126;SDS011;7664;52.008;4.748;2022-07-18T11:58:34;4.47;;;2.35;;
15126;SDS011;7664;52.008;4.748;2022-07-18T12:01:04;4.20;;;2.60;;
15126;SDS011;7664;52.008;4.748;2022-07-18T12:03:35;3.17;;;2.33;;
15126;SDS011;7664;52.008;4.748;2022-07-18T12:06:09;4.55;;;1.85;;
15126;SDS011;7664;52.008;4.748;2022-07-18T12:08:38;4.00;;;1.90;;
15126;SDS011;7664;52.008;4.748;2022-07-18T12:11:10;3.05;;;1.90;;
15126;SDS011;7664;52.008;4.748;2022-07-18T12:13:41;2.75;;;1.77;;
15126;SDS011;7664;52.008;4.748;2022-07-18T12:16:21;4.00;;;2.30;;
15126;SDS011;7664;52.008;4.748;2022-07-18T12:18:55;5.90;;;2.17;;
15126;SDS011;7664;52.008;4.748;2022-07-18T12:21:24;2.35;;;1.80;;
15126;SDS011;7664;52.008;4.748;2022-07-18T12:24:16;2.10;;;1.30;;
15126;SDS011;7664;52.008;4.748;2022-07-18T12:27:06;3.42;;;1.85;;
15126;SDS011;7664;52.008;4.748;2022-07-18T12:29:55;1.65;;;1.27;;
15126;SDS011;7664;52.008;4.748;2022-07-18T12:32:30;6.65;;;2.38;;
15126;SDS011;7664;52.008;4.748;2022-07-18T12:35:06;3.88;;;1.80;;
15126;SDS011;7664;52.008;4.748;2022-07-18T12:37:35;2.03;;;1.52;;
15126;SDS011;7664;52.008;4.748;2022-07-18T12:40:11;3.38;;;1.45;;
15126;SDS011;7664;52.008;4.748;2022-07-18T12:43:01;2.90;;;1.63;;
15126;SDS011;7664;52.008;4.748;2022-07-18T12:45:32;3.72;;;1.65;;
15126;SDS011;7664;52.008;4.748;2022-07-18T12:48:00;2.50;;;1.20;;
15126;SDS011;7664;52.008;4.748;2022-07-18T12:50:30;2.92;;;1.88;;
15126;SDS011;7664;52.008;4.748;2022-07-18T12:52:58;2.20;;;1.52;;
15126;SDS011;7664;52.008;4.748;2022-07-18T12:55:26;3.38;;;1.55;;
15126;SDS011;7664;52.008;4.748;2022-07-18T12:57:57;2.90;;;1.95;;
15126;SDS011;7664;52.008;4.748;2022-07-18T13:00:25;2.45;;;1.50;;
15126;SDS011;7664;52.008;4.748;2022-07-18T13:02:54;3.22;;;1.60;;
15126;SDS011;7664;52.008;4.748;2022-07-18T13:05:24;2.72;;;1.65;;
15126;SDS011;7664;52.008;4.748;2022-07-18T13:07:54;2.08;;;1.58;;
15126;SDS011;7664;52.008;4.748;2022-07-18T13:10:23;2.97;;;1.60;;
15126;SDS011;7664;52.008;4.748;2022-07-18T13:12:50;2.83;;;1.70;;
15126;SDS011;7664;52.008;4.748;2022-07-18T13:15:19;2.40;;;1.17;;
15126;SDS011;7664;52.008;4.748;2022-07-18T13:17:47;2.38;;;1.27;;
15126;SDS011;7664;52.008;4.748;2022-07-18T13:20:15;2.40;;;1.33;;
15126;SDS011;7664;52.008;4.748;2022-07-18T13:22:44;2.03;;;1.23;;
15126;SDS011;7664;52.008;4.748;2022-07-18T13:25:20;1.30;;;1.20;;
15126;SDS011;7664;52.008;4.748;2022-07-18T13:27:49;1.00;;;0.90;;
15126;SDS011;7664;52.008;4.748;2022-07-18T13:30:17;2.47;;;1.55;;
15126;SDS011;7664;52.008;4.748;2022-07-18T13:32:45;1.42;;;1.02;;
15126;SDS011;7664;52.008;4.748;2022-07-18T13:35:14;3.60;;;1.17;;
15126;SDS011;7664;52.008;4.748;2022-07-18T13:37:42;2.40;;;1.42;;
15126;SDS011;7664;52.008;4.748;2022-07-18T13:40:11;1.90;;;1.30;;
15126;SDS011;7664;52.008;4.748;2022-07-18T13:42:41;2.30;;;1.33;;
15126;SDS011;7664;52.008;4.748;2022-07-18T13:45:09;1.83;;;1.08;;
15126;SDS011;7664;52.008;4.748;2022-07-18T13:47:39;1.85;;;1.15;;
15126;SDS011;7664;52.008;4.748;2022-07-18T13:50:08;4.35;;;1.85;;
15126;SDS011;7664;52.008;4.748;2022-07-18T13:52:37;1.35;;;1.05;;
15126;SDS011;7664;52.008;4.748;2022-07-18T13:55:05;2.28;;;1.30;;
15126;SDS011;7664;52.008;4.748;2022-07-18T13:57:33;4.90;;;1.48;;
15126;SDS011;7664;52.008;4.748;2022-07-18T14:00:03;2.58;;;1.02;;
15126;SDS011;7664;52.008;4.748;2022-07-18T14:02:32;1.40;;;0.93;;
15126;SDS011;7664;52.008;4.748;2022-07-18T14:05:00;3.33;;;1.13;;
15126;SDS011;7664;52.008;4.748;2022-07-18T14:07:39;1.35;;;1.13;;
15126;SDS011;7664;52.008;4.748;2022-07-18T14:10:08;1.45;;;1.13;;
15126;SDS011;7664;52.008;4.748;2022-07-18T14:12:37;1.88;;;1.50;;
15126;SDS011;7664;52.008;4.748;2022-07-18T14:15:07;3.03;;;1.85;;
15126;SDS011;7664;52.008;4.748;2022-07-18T14:17:35;1.98;;;1.40;;
15126;SDS011;7664;52.008;4.748;2022-07-18T14:20:03;2.33;;;1.67;;
15126;SDS011;7664;52.008;4.748;2022-07-18T14:22:33;1.88;;;1.60;;
15126;SDS011;7664;52.008;4.748;2022-07-18T14:25:01;4.15;;;1.65;;
15126;SDS011;7664;52.008;4.748;2022-07-18T14:27:29;3.03;;;1.63;;
15126;SDS011;7664;52.008;4.748;2022-07-18T14:29:56;3.90;;;1.40;;
15126;SDS011;7664;52.008;4.748;2022-07-18T14:32:27;3.13;;;1.65;;
15126;SDS011;7664;52.008;4.748;2022-07-18T14:34:55;3.97;;;1.50;;
15126;SDS011;7664;52.008;4.748;2022-07-18T14:37:23;1.95;;;1.15;;
15126;SDS011;7664;52.008;4.748;2022-07-18T14:39:51;3.53;;;1.20;;
15126;SDS011;7664;52.008;4.748;2022-07-18T14:42:21;2.17;;;1.30;;
15126;SDS011;7664;52.008;4.748;2022-07-18T14:44:50;2.65;;;1.75;;
15126;SDS011;7664;52.008;4.748;2022-07-18T14:47:18;4.35;;;1.58;;
15126;SDS011;7664;52.008;4.748;2022-07-18T14:49:48;2.20;;;1.55;;
15126;SDS011;7664;52.008;4.748;2022-07-18T14:52:16;2.40;;;1.52;;
15126;SDS011;7664;52.008;4.748;2022-07-18T14:54:44;1.38;;;1.20;;
15126;SDS011;7664;52.008;4.748;2022-07-18T14:57:12;2.20;;;1.30;;
15126;SDS011;7664;52.008;4.748;2022-07-18T14:59:42;2.80;;;1.27;;
15126;SDS011;7664;52.008;4.748;2022-07-18T15:02:10;3.13;;;1.50;;
15126;SDS011;7664;52.008;4.748;2022-07-18T15:04:40;2.08;;;1.10;;
15126;SDS011;7664;52.008;4.748;2022-07-18T15:07:10;3.55;;;1.50;;
15126;SDS011;7664;52.008;4.748;2022-07-18T15:09:38;1.60;;;1.20;;
15126;SDS011;7664;52.008;4.748;2022-07-18T15:12:06;2.08;;;1.38;;
15126;SDS011;7664;52.008;4.748;2022-07-18T15:14:35;4.60;;;0.98;;
15126;SDS011;7664;52.008;4.748;2022-07-18T15:17:03;1.45;;;1.27;;
15126;SDS011;7664;52.008;4.748;2022-07-18T15:19:31;2.20;;;1.10;;
15126;SDS011;7664;52.008;4.748;2022-07-18T15:21:59;2.55;;;1.73;;
15126;SDS011;7664;52.008;4.748;2022-07-18T15:24:28;1.40;;;1.08;;
15126;SDS011;7664;52.008;4.748;2022-07-18T15:26:56;1.95;;;1.30;;
15126;SDS011;7664;52.008;4.748;2022-07-18T15:29:24;2.60;;;1.60;;
15126;SDS011;7664;52.008;4.748;2022-07-18T15:31:52;2.13;;;1.48;;